createdAt,value
2022-12-13T00:03:01.451Z,14.02
2022-12-13T00:08:03.255Z,13.57
2022-12-13T00:13:05.051Z,14.77
2022-12-13T00:18:07.168Z,13.60
2022-12-13T00:23:08.924Z,15.85
2022-12-13T00:28:11.271Z,13.20
2022-12-13T00:33:12.959Z,14.80
2022-12-13T00:38:14.835Z,13.77
2022-12-13T00:43:16.723Z,13.98
2022-12-13T00:48:18.391Z,14.50
2022-12-13T00:53:20.049Z,14.85
2022-12-13T00:58:21.711Z,14.80
2022-12-13T01:03:25.613Z,13.90
2022-12-13T01:08:29.044Z,14.75
2022-12-13T01:13:30.794Z,13.80
2022-12-13T01:18:32.849Z,13.77
2022-12-13T01:23:35.111Z,14.57
2022-12-13T01:28:36.986Z,15.05
2022-12-13T01:33:39.708Z,15.38
2022-12-13T01:38:41.824Z,16.85
2022-12-13T01:43:43.418Z,17.63
2022-12-13T01:49:19.531Z,16.52
2022-12-13T01:54:33.544Z,18.00
2022-12-13T01:59:39.891Z,15.68
2022-12-13T02:04:57.365Z,16.48
2022-12-13T02:10:01.464Z,15.93
2022-12-13T02:15:08.574Z,15.25
2022-12-13T02:20:51.122Z,16.48
2022-12-13T02:25:55.420Z,15.68
2022-12-13T02:31:18.360Z,13.98
2022-12-13T02:36:27.660Z,16.52
2022-12-13T02:41:39.473Z,15.40
2022-12-13T02:46:49.010Z,14.95
2022-12-13T02:51:52.471Z,15.65
2022-12-13T02:56:56.125Z,15.00
2022-12-13T03:02:09.606Z,13.20
2022-12-13T03:07:33.305Z,13.73
2022-12-13T03:12:57.827Z,13.68
2022-12-13T03:18:05.684Z,13.77
2022-12-13T03:23:11.201Z,13.40
2022-12-13T03:28:13.301Z,13.43
2022-12-13T03:33:15.029Z,14.13
2022-12-13T03:38:21.844Z,14.80
2022-12-13T03:43:25.351Z,13.85
2022-12-13T03:48:27.463Z,15.75
2022-12-13T03:53:33.719Z,16.15
2022-12-13T03:58:38.268Z,15.70
2022-12-13T04:03:41.775Z,15.52
2022-12-13T04:08:43.523Z,15.63
2022-12-13T04:13:45.176Z,16.25
2022-12-13T04:18:46.867Z,16.15
2022-12-13T04:23:48.511Z,17.33
2022-12-13T04:28:54.412Z,17.88
2022-12-13T04:33:56.507Z,18.93
2022-12-13T04:38:58.172Z,18.52
2022-12-13T04:44:04.214Z,22.42
2022-12-13T04:49:05.905Z,30.45
2022-12-13T04:54:24.284Z,38.05
2022-12-13T04:59:26.419Z,19.33
2022-12-13T05:04:32.667Z,17.60
2022-12-13T05:09:35.806Z,18.08
2022-12-13T05:14:37.481Z,16.98
2022-12-13T05:19:39.117Z,18.00
2022-12-13T05:24:42.008Z,18.38
2022-12-13T05:29:43.755Z,17.05
2022-12-13T05:34:45.409Z,18.58
2022-12-13T05:39:47.057Z,17.15
2022-12-13T05:44:48.730Z,15.35
2022-12-13T05:49:50.430Z,15.18
2022-12-13T05:54:56.451Z,14.93
2022-12-13T06:00:06.033Z,14.50
2022-12-13T06:05:27.849Z,14.98
2022-12-13T06:10:34.603Z,12.73
2022-12-13T06:15:38.245Z,14.73
2022-12-13T06:20:56.553Z,13.77
2022-12-13T06:25:58.683Z,12.13
2022-12-13T06:31:02.451Z,12.52
2022-12-13T06:36:05.905Z,12.50
2022-12-13T06:41:16.808Z,13.50
2022-12-13T06:46:18.634Z,15.93
2022-12-13T06:51:22.549Z,23.05
2022-12-13T06:56:24.447Z,29.75
2022-12-13T07:01:26.237Z,41.83
2022-12-13T07:06:28.117Z,40.95
2022-12-13T07:11:33.221Z,43.08
2022-12-13T07:16:35.921Z,30.80
2022-12-13T07:21:39.070Z,26.73
2022-12-13T07:26:40.759Z,26.88
2022-12-13T07:31:43.327Z,13.40
2022-12-13T07:36:46.597Z,16.20
2022-12-13T07:41:48.337Z,17.45
2022-12-13T07:46:50.232Z,16.95
2022-12-13T07:51:52.172Z,15.57
2022-12-13T07:56:58.566Z,13.23
2022-12-13T08:02:06.614Z,15.00
2022-12-13T08:07:09.341Z,15.38
2022-12-13T08:12:11.194Z,19.55
2022-12-13T08:17:12.983Z,16.10
2022-12-13T08:22:14.912Z,15.10
2022-12-13T08:27:25.593Z,17.33
2022-12-13T08:32:27.305Z,15.30
2022-12-13T08:37:28.956Z,15.23
2022-12-13T08:42:30.648Z,17.17
2022-12-13T08:47:34.533Z,14.65
2022-12-13T08:52:41.517Z,11.65
2022-12-13T08:57:45.197Z,13.57
2022-12-13T09:02:46.889Z,12.80
2022-12-13T09:07:48.595Z,10.30
2022-12-13T09:12:50.501Z,9.88
2022-12-13T09:17:52.997Z,9.65
2022-12-13T09:23:02.177Z,10.85
2022-12-13T09:28:06.992Z,10.80
2022-12-13T09:33:28.203Z,11.88
2022-12-13T09:38:30.438Z,11.73
2022-12-13T09:43:43.170Z,12.00
2022-12-13T09:48:48.149Z,9.93
2022-12-13T09:53:52.815Z,14.82
2022-12-13T09:58:56.517Z,14.70
2022-12-13T10:04:00.266Z,17.88
2022-12-13T10:09:02.075Z,12.70
2022-12-13T10:14:15.787Z,13.95
2022-12-13T10:19:33.739Z,15.40
2022-12-13T10:24:49.889Z,15.40
2022-12-13T10:30:12.698Z,14.98
2022-12-13T10:35:26.517Z,15.43
2022-12-13T10:40:35.661Z,19.08
2022-12-13T10:45:37.738Z,17.60
2022-12-13T10:50:39.705Z,17.63
2022-12-13T10:55:42.486Z,17.15
2022-12-13T11:00:46.311Z,17.95
2022-12-13T11:06:02.866Z,19.25
2022-12-13T11:11:06.871Z,16.00
2022-12-13T11:16:30.551Z,13.75
2022-12-13T11:21:36.764Z,14.95
2022-12-13T11:26:42.826Z,13.43
2022-12-13T11:31:51.423Z,11.70
2022-12-13T11:37:01.645Z,12.93
2022-12-13T11:42:15.411Z,11.38
2022-12-13T11:47:25.234Z,12.48
2022-12-13T11:52:40.952Z,11.90
2022-12-13T11:57:54.909Z,11.48
2022-12-13T12:03:06.491Z,10.52
2022-12-13T12:08:32.267Z,10.38
2022-12-13T12:13:51.114Z,12.83
2022-12-13T12:18:53.822Z,11.48
2022-12-13T12:24:09.609Z,12.00
2022-12-13T12:29:17.694Z,11.57
2022-12-13T12:34:51.739Z,11.20
2022-12-13T12:40:27.068Z,10.52
2022-12-13T12:46:11.578Z,11.02
2022-12-13T12:51:30.418Z,14.43
2022-12-13T12:56:50.397Z,14.05
2022-12-13T13:02:07.701Z,13.50
2022-12-13T13:07:39.708Z,11.90
2022-12-13T13:12:43.141Z,12.35
2022-12-13T13:17:46.806Z,15.18
2022-12-13T13:23:03.932Z,15.40
2022-12-13T13:28:17.262Z,20.25
2022-12-13T13:33:49.571Z,14.05
2022-12-13T13:38:53.431Z,16.30
2022-12-13T13:43:55.259Z,12.93
2022-12-13T13:49:10.126Z,13.32
2022-12-13T13:54:26.752Z,12.00
2022-12-13T13:59:53.219Z,11.52
2022-12-13T14:05:06.879Z,12.23
2022-12-13T14:10:27.176Z,10.73
2022-12-13T14:15:56.129Z,12.77
2022-12-13T14:21:22.388Z,10.80
2022-12-13T14:26:44.444Z,11.17
2022-12-13T14:31:53.463Z,11.50
2022-12-13T14:37:06.322Z,16.23
2022-12-13T14:42:24.858Z,11.95
2022-12-13T14:47:27.383Z,15.35
2022-12-13T14:52:35.574Z,16.77
2022-12-13T14:57:37.291Z,16.92
2022-12-13T15:02:51.044Z,17.63
2022-12-13T15:07:53.379Z,16.13
2022-12-13T15:12:55.861Z,16.55
2022-12-13T15:18:09.875Z,18.40
2022-12-13T15:28:39.764Z,19.00
2022-12-13T15:33:48.385Z,17.70
2022-12-13T15:38:53.572Z,22.80
2022-12-13T15:44:03.362Z,19.85
2022-12-13T15:49:16.399Z,22.92
2022-12-13T15:54:21.802Z,20.77
2022-12-13T15:59:44.134Z,21.73
2022-12-13T16:04:46.436Z,29.08
2022-12-13T16:09:50.682Z,28.25
2022-12-13T16:14:52.596Z,25.75
2022-12-13T16:20:09.817Z,42.20
2022-12-13T16:25:14.451Z,41.88
2022-12-13T16:30:24.457Z,36.85
2022-12-13T16:35:26.364Z,52.67
2022-12-13T16:40:33.230Z,33.55
2022-12-13T16:45:42.059Z,23.63
2022-12-13T16:50:57.600Z,24.73
2022-12-13T16:56:00.130Z,28.83
2022-12-13T17:01:02.880Z,32.45
2022-12-13T17:06:05.706Z,29.45
2022-12-13T17:11:14.619Z,23.55
2022-12-13T17:16:19.940Z,28.23
2022-12-13T17:21:26.183Z,23.35
2022-12-13T17:26:29.681Z,26.38
2022-12-13T17:31:35.821Z,26.85
2022-12-13T17:36:37.997Z,31.63
2022-12-13T17:41:40.082Z,31.13
2022-12-13T17:46:42.203Z,32.67
2022-12-13T17:51:56.918Z,39.17
2022-12-13T17:56:58.998Z,32.85
2022-12-13T18:02:02.601Z,44.95
2022-12-13T18:07:04.404Z,55.17
2022-12-13T18:12:08.581Z,33.97
2022-12-13T18:17:10.892Z,36.17
2022-12-13T18:22:12.888Z,37.78
2022-12-13T18:27:14.936Z,40.83
2022-12-13T18:32:16.678Z,48.63
2022-12-13T18:37:18.329Z,47.38
2022-12-13T18:42:20.187Z,39.17
2022-12-13T18:47:22.078Z,36.65
2022-12-13T18:52:24.043Z,40.17
2022-12-13T18:57:26.204Z,42.50
2022-12-13T19:02:34.075Z,49.67
2022-12-13T19:07:36.596Z,43.80
2022-12-13T19:12:38.464Z,43.80
2022-12-13T19:17:40.086Z,42.97
2022-12-13T19:22:41.740Z,45.88
2022-12-13T19:27:46.675Z,63.53
2022-12-13T19:32:48.464Z,37.63
2022-12-13T19:37:50.132Z,51.30
2022-12-13T19:42:51.887Z,58.75
2022-12-13T19:47:53.540Z,62.28
2022-12-13T19:52:55.345Z,61.28
2022-12-13T19:57:57.826Z,62.35
2022-12-13T20:02:59.554Z,67.18
2022-12-13T20:08:01.542Z,66.60
2022-12-13T20:13:03.501Z,64.15
2022-12-13T20:18:05.226Z,64.80
2022-12-13T20:23:06.827Z,72.72
2022-12-13T20:28:12.667Z,61.08
2022-12-13T20:33:16.106Z,49.20
2022-12-13T20:38:18.276Z,47.47
2022-12-13T20:43:20.092Z,53.60
2022-12-13T20:48:22.307Z,38.80
2022-12-13T20:53:24.544Z,40.38
2022-12-13T20:58:27.418Z,51.13
2022-12-13T21:03:29.148Z,38.47
2022-12-13T21:08:49.479Z,48.47
2022-12-13T21:14:03.634Z,42.97
2022-12-13T21:19:21.509Z,45.40
2022-12-13T21:24:28.276Z,55.15
2022-12-13T21:29:41.376Z,51.03
2022-12-13T21:34:44.435Z,61.30
2022-12-13T21:39:49.822Z,59.58
2022-12-13T21:44:52.281Z,58.22
2022-12-13T21:49:53.923Z,55.83
2022-12-13T21:55:15.316Z,47.17
2022-12-13T22:00:17.492Z,49.88
2022-12-13T22:05:19.216Z,47.00
2022-12-13T22:10:26.304Z,48.92
2022-12-13T22:15:28.515Z,42.22
2022-12-13T22:20:33.556Z,54.22
2022-12-13T22:25:36.329Z,47.95
2022-12-13T22:30:38.089Z,52.15
2022-12-13T22:35:40.173Z,38.40
2022-12-13T22:40:42.375Z,43.58
2022-12-13T22:45:46.184Z,47.10
2022-12-13T22:50:48.457Z,36.40
2022-12-13T22:55:52.622Z,47.63
2022-12-13T23:00:55.642Z,45.60
2022-12-13T23:06:15.929Z,44.50
2022-12-13T23:11:36.611Z,37.65
2022-12-13T23:16:39.291Z,46.97
2022-12-13T23:21:41.458Z,46.08
2022-12-13T23:26:50.163Z,37.22
2022-12-13T23:31:52.051Z,35.58
2022-12-13T23:36:53.657Z,38.15
2022-12-13T23:41:55.363Z,38.83
2022-12-13T23:46:57.026Z,38.15
2022-12-13T23:51:58.633Z,41.72
2022-12-13T23:57:01.355Z,39.55
